This is the latest recevied weather packets stored in our database for station/object TB3NHM-11. If no packets are shown the sender has not sent any weather packets the latest 1 day(s).
| Time | Temp. | Humidity | Pressure | Rain* | Wind** | Luminosity | Snow |
|---|---|---|---|---|---|---|---|
| 1778042108 | 8.89° C | 64% | - | - | 0 m/s | - | - |
| 1778038546 | 9.44° C | 66% | - | - | 0 m/s | - | - |
| 1778034990 | 9.44° C | 64% | - | - | 0 m/s | - | - |
| 1778031437 | 10° C | 61% | - | - | 0 m/s | - | - |
| 1778027884 | 10.56° C | 61% | - | - | 0 m/s | - | - |
| 1778024329 | 11.11° C | 55% | - | - | 0 m/s | - | - |
| 1778020774 | 12.22° C | 53% | - | - | 0 m/s | - | - |
| 1778017217 | 12.78° C | 50% | - | - | 0 m/s | - | - |
| 1778013665 | 14.44° C | 38% | - | - | 0 m/s | - | - |
| 1778010109 | 15° C | 40% | - | - | 0 m/s | - | - |
| 1778006554 | 16.11° C | 38% | - | - | 0 m/s | - | - |
| 1778003000 | 16.67° C | 35% | - | - | 0 m/s | - | - |
| 1777999453 | 18.89° C | 32% | - | - | 0 m/s | - | - |
| 1777995918 | 21.67° C | 29% | - | - | 0 m/s | - | - |
| 1777992359 | 21.67° C | 26% | - | - | 0 m/s | - | - |
| 1777988820 | 21.67° C | 24% | - | - | 0 m/s | - | - |
| 1777985265 | 23.33° C | 24% | - | - | 0 m/s | - | - |
| 1777981692 | 21.11° C | 28% | - | - | 0 m/s | - | - |
| 1777978122 | 19.44° C | 30% | - | - | 0 m/s | - | - |
| 1777974558 | 18.89° C | 31% | - | - | 0 m/s | - | - |
| 1777970998 | 18.89° C | 30% | - | - | 0 m/s | - | - |
| 1777967440 | 17.22° C | 31% | - | - | 0 m/s | - | - |
| 1777963863 | 13.89° C | 47% | - | - | 0 m/s | - | - |
| 1777960303 | 11.67° C | 60% | - | - | 0 m/s | - | - |
* Rain since midnight (hover to see other rain measurements)
** Current wind speed in m/s (hover to see current wind gust speed)